Time;durP1;ratioP1;P1;durP2;ratioP2;P2;SDS_P1;SDS_P2;PMS_P1;PMS_P2;Temp;Humidity;BMP_temperature;BMP_pressure;BME280_temperature;BME280_humidity;BME280_pressure;Samples;Min_cycle;Max_cycle;Signal;HPM_P1;HPM_P2
2023/04/07 00:00:59;;;;;;;10.18;6.00;;;7.10;99.90;;;;;;5136373;27;20597;-62
2023/04/07 00:03:25;;;;;;;8.77;6.32;;;7.00;99.90;;;;;;5136302;27;20031;-63
2023/04/07 00:05:50;;;;;;;12.18;7.15;;;7.10;99.90;;;;;;5136117;27;20505;-63
2023/04/07 00:08:16;;;;;;;9.13;6.13;;;7.10;99.90;;;;;;5136129;27;20043;-62
2023/04/07 00:10:42;;;;;;;12.00;5.63;;;8.00;99.90;;;;;;5136067;27;20046;-62
2023/04/07 00:13:07;;;;;;;13.80;6.70;;;8.10;99.90;;;;;;5136167;27;20082;-62
2023/04/07 00:15:33;;;;;;;10.63;6.65;;;7.00;99.90;;;;;;5135738;27;20554;-62
2023/04/07 00:17:58;;;;;;;12.70;6.78;;;7.00;99.90;;;;;;5135781;27;20084;-62
2023/04/07 00:20:24;;;;;;;15.98;6.88;;;7.00;99.90;;;;;;5117110;27;20047;-63
2023/04/07 00:22:50;;;;;;;13.68;8.10;;;7.00;99.90;;;;;;5135937;27;20043;-64
2023/04/07 00:25:15;;;;;;;12.32;7.13;;;7.00;99.90;;;;;;5135607;27;20039;-62
2023/04/07 00:27:41;;;;;;;10.00;6.57;;;7.00;99.90;;;;;;5117378;27;20042;-62
2023/04/07 00:30:07;;;;;;;10.45;6.82;;;7.00;99.90;;;;;;5135808;27;20031;-62
2023/04/07 00:32:33;;;;;;;10.43;6.45;;;7.00;99.90;;;;;;5135426;27;20039;-62
2023/04/07 00:34:58;;;;;;;9.73;6.13;;;7.00;99.90;;;;;;5135749;27;20042;-62
2023/04/07 00:37:24;;;;;;;11.73;6.28;;;7.00;99.90;;;;;;5135330;27;20398;-62
2023/04/07 00:39:51;;;;;;;9.98;6.50;;;7.50;99.90;;;;;;5135322;27;20050;-62
2023/04/07 00:42:17;;;;;;;8.35;5.85;;;7.00;99.90;;;;;;5135146;27;20104;-62
2023/04/07 00:44:42;;;;;;;13.15;6.25;;;7.00;99.90;;;;;;5135190;27;20039;-62
2023/04/07 00:47:08;;;;;;;12.57;7.78;;;7.00;99.90;;;;;;5135417;27;20035;-62
2023/04/07 00:49:35;;;;;;;11.30;7.15;;;7.00;99.90;;;;;;5135360;27;20062;-63
2023/04/07 00:52:01;;;;;;;12.95;7.38;;;7.00;99.90;;;;;;5135328;27;20043;-62
2023/04/07 00:54:28;;;;;;;9.63;6.43;;;7.00;99.90;;;;;;5135277;27;20444;-62
2023/04/07 00:56:54;;;;;;;15.07;6.85;;;7.00;99.90;;;;;;5134961;27;20046;-62
2023/04/07 00:59:20;;;;;;;13.07;7.10;;;7.00;99.90;;;;;;5135193;27;20043;-63
2023/04/07 01:02:10;;;;;;;10.45;6.43;;;7.00;99.90;;;;;;5135072;27;20123;-63
2023/04/07 01:04:50;;;;;;;12.50;7.55;;;7.00;99.90;;;;;;5116346;27;20039;-62
2023/04/07 01:07:33;;;;;;;13.07;6.53;;;7.00;99.90;;;;;;5135023;27;20389;-68
2023/04/07 01:10:05;;;;;;;12.32;6.88;;;7.00;99.90;;;;;;5135005;27;20027;-62
2023/04/07 01:12:38;;;;;;;12.30;7.05;;;7.00;99.90;;;;;;5134993;27;20057;-63
2023/04/07 01:15:10;;;;;;;11.70;6.78;;;7.00;99.90;;;;;;5134600;27;20155;-62
2023/04/07 01:17:36;;;;;;;;;;;7.00;99.90;;;;;;5134732;27;20443;-63
2023/04/07 01:20:06;;;;;;;14.18;6.70;;;7.00;99.90;;;;;;5134390;27;19923;-62
2023/04/07 01:22:39;;;;;;;12.30;6.38;;;7.00;99.90;;;;;;5134666;27;20035;-62
2023/04/07 01:25:37;;;;;;;13.50;7.63;;;7.00;99.90;;;;;;5134323;27;20031;-62
2023/04/07 01:28:17;;;;;;;12.57;7.05;;;7.00;99.90;;;;;;5134677;27;20038;-63
2023/04/07 01:30:44;;;;;;;17.60;8.18;;;7.00;99.90;;;;;;5134719;27;20154;-62
2023/04/07 01:33:13;;;;;;;12.73;7.40;;;7.00;99.90;;;;;;5133266;27;20163;-62
2023/04/07 01:35:40;;;;;;;11.90;6.43;;;7.00;99.90;;;;;;5134513;27;20039;-62
2023/04/07 01:38:06;;;;;;;13.07;8.13;;;7.00;99.90;;;;;;5116066;27;20126;-63
2023/04/07 01:40:33;;;;;;;12.93;7.15;;;7.00;99.90;;;;;;5115715;27;20150;-64
2023/04/07 01:43:00;;;;;;;15.80;7.68;;;7.00;99.90;;;;;;5116208;27;20034;-62
2023/04/07 01:45:27;;;;;;;10.77;6.97;;;6.90;99.90;;;;;;5134077;27;20057;-62
2023/04/07 01:47:54;;;;;;;13.25;6.90;;;7.60;99.90;;;;;;5115714;27;20142;-62
2023/04/07 01:50:20;;;;;;;11.52;7.18;;;6.60;99.90;;;;;;5134299;27;20073;-62
2023/04/07 01:52:46;;;;;;;13.38;7.35;;;7.00;99.90;;;;;;5134304;27;20039;-62
2023/04/07 01:55:12;;;;;;;11.90;6.55;;;6.90;99.90;;;;;;5115555;27;20042;-62
2023/04/07 01:57:38;;;;;;;12.23;7.25;;;6.90;99.90;;;;;;5115838;27;20039;-62
2023/04/07 02:00:05;;;;;;;12.48;7.55;;;7.60;99.90;;;;;;5134143;27;20395;-62
2023/04/07 02:02:35;;;;;;;11.32;7.55;;;6.90;99.90;;;;;;5134084;27;20429;-62
2023/04/07 02:05:04;;;;;;;12.23;6.75;;;6.90;99.90;;;;;;5134117;27;20042;-62
2023/04/07 02:07:38;;;;;;;13.60;7.95;;;6.90;99.90;;;;;;5133821;27;20423;-62
2023/04/07 02:10:07;;;;;;;9.85;6.18;;;6.90;99.90;;;;;;5098669;28;20031;-62
2023/04/07 02:12:36;;;;;;;11.32;6.95;;;6.90;99.90;;;;;;5133966;27;20043;-62
2023/04/07 02:15:03;;;;;;;15.27;8.68;;;6.90;99.90;;;;;;5134043;27;20131;-62
2023/04/07 02:17:32;;;;;;;14.77;7.65;;;7.00;99.90;;;;;;5133982;28;20406;-62
2023/04/07 02:19:59;;;;;;;12.32;7.68;;;6.90;99.90;;;;;;5133675;28;20055;-62
2023/04/07 02:22:25;;;;;;;14.32;7.90;;;7.50;99.90;;;;;;5133753;28;20096;-63
2023/04/07 02:24:51;;;;;;;13.73;7.22;;;6.90;99.90;;;;;;5133986;28;20072;-63
2023/04/07 02:27:17;;;;;;;14.02;7.22;;;7.00;99.90;;;;;;5133944;27;20811;-62
2023/04/07 02:29:42;;;;;;;15.05;7.05;;;6.90;99.90;;;;;;5118530;27;20487;-66
2023/04/07 02:32:08;;;;;;;14.88;7.88;;;6.90;99.90;;;;;;5138132;27;20375;-64
2023/04/07 02:34:33;;;;;;;14.98;7.78;;;6.90;99.90;;;;;;5138316;27;20039;-67
2023/04/07 02:36:59;;;;;;;12.18;7.35;;;6.90;99.90;;;;;;5138028;27;20039;-66
2023/04/07 02:39:25;;;;;;;14.65;7.32;;;6.90;99.90;;;;;;5137960;27;20058;-66
2023/04/07 02:41:50;;;;;;;11.20;7.45;;;6.90;99.90;;;;;;5137842;27;20162;-66
2023/04/07 02:44:16;;;;;;;18.42;8.00;;;6.90;99.90;;;;;;5119117;27;20050;-66
2023/04/07 02:46:42;;;;;;;13.80;7.97;;;6.90;99.90;;;;;;5137804;27;20168;-66
2023/04/07 02:49:07;;;;;;;12.70;7.88;;;7.00;99.90;;;;;;5137779;27;20031;-66
2023/04/07 02:51:33;;;;;;;11.20;6.90;;;6.90;99.90;;;;;;5137671;27;20042;-66
2023/04/07 02:53:58;;;;;;;14.27;7.28;;;6.90;99.90;;;;;;5137615;27;20050;-66
2023/04/07 02:56:24;;;;;;;11.82;7.28;;;6.90;99.90;;;;;;5137313;27;20074;-66
2023/04/07 02:58:50;;;;;;;10.80;6.90;;;6.90;99.90;;;;;;5137278;27;20041;-66
2023/04/07 03:01:15;;;;;;;12.90;7.43;;;6.90;99.90;;;;;;5137498;27;20101;-66
2023/04/07 03:03:43;;;;;;;14.20;7.28;;;8.00;99.90;;;;;;5137170;27;20110;-66
2023/04/07 03:06:09;;;;;;;12.25;6.25;;;6.90;99.90;;;;;;5137483;27;20041;-66
2023/04/07 03:08:35;;;;;;;11.60;7.22;;;6.90;99.90;;;;;;5137407;27;20027;-66
2023/04/07 03:11:00;;;;;;;14.30;7.78;;;6.90;99.90;;;;;;5118868;27;20444;-66
2023/04/07 03:13:26;;;;;;;12.43;7.85;;;6.90;99.90;;;;;;5118921;27;20043;-66
2023/04/07 03:15:52;;;;;;;14.02;7.38;;;6.80;99.90;;;;;;5137278;27;20039;-66
2023/04/07 03:18:17;;;;;;;10.27;6.93;;;6.90;99.90;;;;;;5137123;27;20035;-66
2023/04/07 03:20:44;;;;;;;12.85;7.25;;;6.90;99.90;;;;;;5136706;27;20443;-67
2023/04/07 03:23:10;;;;;;;14.98;7.05;;;8.30;99.90;;;;;;5136874;27;20114;-67
2023/04/07 03:25:36;;;;;;;15.40;8.02;;;6.90;99.90;;;;;;5118392;27;20190;-66
2023/04/07 03:28:01;;;;;;;8.90;5.90;;;6.90;99.90;;;;;;5136835;27;20281;-66
2023/04/07 03:30:27;;;;;;;11.35;6.40;;;6.90;99.90;;;;;;5137015;27;20364;-66
2023/04/07 03:32:52;;;;;;;13.02;6.85;;;6.90;99.90;;;;;;5101463;27;20118;-66
2023/04/07 03:35:18;;;;;;;12.65;6.68;;;6.90;99.90;;;;;;5136651;27;20039;-66
2023/04/07 03:37:44;;;;;;;11.95;6.20;;;6.90;99.90;;;;;;5118472;27;20147;-66
2023/04/07 03:40:10;;;;;;;10.38;6.45;;;7.60;99.90;;;;;;5136254;27;20039;-66
2023/04/07 03:42:35;;;;;;;10.85;6.22;;;6.90;99.90;;;;;;5136648;27;20093;-66
2023/04/07 03:45:01;;;;;;;11.93;6.72;;;6.90;99.90;;;;;;5136698;27;20039;-66
2023/04/07 03:47:26;;;;;;;12.15;7.25;;;6.90;99.90;;;;;;5117988;27;20547;-66
2023/04/07 03:49:52;;;;;;;15.50;7.35;;;6.90;99.90;;;;;;5118215;27;20042;-68
2023/04/07 03:52:18;;;;;;;12.25;6.70;;;6.90;99.90;;;;;;5136550;27;20095;-66
2023/04/07 03:54:43;;;;;;;10.77;6.65;;;6.90;99.90;;;;;;5118111;27;20406;-66
2023/04/07 03:57:09;;;;;;;10.65;6.47;;;6.90;99.90;;;;;;5118059;27;20432;-66
2023/04/07 03:59:35;;;;;;;10.80;5.97;;;6.90;99.90;;;;;;5117734;27;20047;-66
2023/04/07 04:02:00;;;;;;;12.30;6.78;;;6.90;99.90;;;;;;5136221;27;20079;-66
2023/04/07 04:04:26;;;;;;;12.95;6.25;;;6.90;99.90;;;;;;5136274;27;20489;-66
2023/04/07 04:06:51;;;;;;;9.85;6.07;;;6.90;99.90;;;;;;5135965;27;20458;-66
2023/04/07 04:09:17;;;;;;;11.23;6.75;;;6.90;99.90;;;;;;5135977;27;20035;-66
2023/04/07 04:11:43;;;;;;;12.88;6.15;;;6.90;99.90;;;;;;5117549;27;20053;-66
2023/04/07 04:14:08;;;;;;;12.10;6.63;;;6.90;99.90;;;;;;5135920;27;20474;-66
2023/04/07 04:16:34;;;;;;;11.05;6.35;;;6.90;99.90;;;;;;5136031;27;20494;-66
2023/04/07 04:19:00;;;;;;;12.52;6.45;;;6.90;99.90;;;;;;5135847;27;20058;-66
2023/04/07 04:21:26;;;;;;;10.40;5.72;;;6.90;99.90;;;;;;5135885;27;20079;-66
2023/04/07 04:23:52;;;;;;;13.15;6.88;;;6.90;99.90;;;;;;5117762;27;20490;-66
2023/04/07 04:26:18;;;;;;;11.50;6.30;;;7.40;99.90;;;;;;5135915;27;20474;-66
2023/04/07 04:28:43;;;;;;;13.70;5.68;;;6.90;99.90;;;;;;5135865;27;20032;-67
2023/04/07 04:31:09;;;;;;;12.38;5.72;;;7.10;99.90;;;;;;5135783;27;20039;-67
2023/04/07 04:33:35;;;;;;;10.68;5.82;;;6.90;99.90;;;;;;5135729;27;20486;-66
2023/04/07 04:36:00;;;;;;;12.88;6.18;;;6.90;99.90;;;;;;5135481;27;20548;-66
2023/04/07 04:38:26;;;;;;;9.93;5.88;;;6.90;99.90;;;;;;5135582;27;20050;-66
2023/04/07 04:40:51;;;;;;;15.32;6.43;;;6.80;99.90;;;;;;5135550;27;20043;-66
2023/04/07 04:43:17;;;;;;;11.40;6.80;;;6.90;99.90;;;;;;5135477;27;20039;-66
2023/04/07 04:45:43;;;;;;;11.80;6.18;;;6.90;99.90;;;;;;5135154;27;20500;-67
2023/04/07 04:48:09;;;;;;;9.85;6.32;;;6.90;99.90;;;;;;5116749;27;20046;-66
2023/04/07 04:50:35;;;;;;;11.07;6.15;;;6.90;99.90;;;;;;5134503;27;20038;-66
2023/04/07 04:53:01;;;;;;;10.13;5.90;;;6.90;99.90;;;;;;5135090;27;20031;-66
2023/04/07 04:55:27;;;;;;;10.77;6.03;;;6.90;99.90;;;;;;5116643;27;20042;-66
2023/04/07 04:57:52;;;;;;;12.27;5.90;;;6.90;99.90;;;;;;5135310;27;20114;-68
2023/04/07 05:00:18;;;;;;;13.43;5.95;;;6.90;99.90;;;;;;5116683;27;20071;-66
2023/04/07 05:02:45;;;;;;;11.00;5.20;;;6.90;99.90;;;;;;5135525;27;20050;-66
2023/04/07 05:05:11;;;;;;;12.25;5.93;;;6.90;99.90;;;;;;5134801;27;20039;-66
2023/04/07 05:07:39;;;;;;;8.60;5.22;;;6.90;99.90;;;;;;5134931;27;20031;-66
2023/04/07 05:10:08;;;;;;;7.40;5.18;;;6.90;99.90;;;;;;5134887;27;20031;-68
2023/04/07 05:12:34;;;;;;;8.00;5.43;;;6.90;99.90;;;;;;5116561;27;20035;-66
2023/04/07 05:15:00;;;;;;;11.45;5.90;;;6.90;99.90;;;;;;5134653;27;20035;-66
2023/04/07 05:17:25;;;;;;;11.85;6.05;;;6.80;99.90;;;;;;5134829;27;20038;-66
2023/04/07 05:19:51;;;;;;;12.10;6.15;;;6.90;99.90;;;;;;5134604;27;20498;-66
2023/04/07 05:22:16;;;;;;;11.27;5.45;;;6.90;99.90;;;;;;5134418;27;20039;-66
2023/04/07 05:24:42;;;;;;;11.43;6.32;;;6.90;99.90;;;;;;5134796;27;20039;-66
2023/04/07 05:27:07;;;;;;;8.32;5.55;;;6.90;99.90;;;;;;5134459;27;20474;-66
2023/04/07 05:29:33;;;;;;;10.68;5.43;;;6.90;99.90;;;;;;5134594;27;20041;-66
2023/04/07 05:32:00;;;;;;;9.05;5.30;;;6.90;99.90;;;;;;5134625;27;20074;-66
2023/04/07 05:34:26;;;;;;;8.63;5.55;;;6.90;99.90;;;;;;5115901;27;20554;-66
2023/04/07 05:36:52;;;;;;;9.73;5.18;;;6.90;99.90;;;;;;5115954;27;20043;-66
2023/04/07 05:39:17;;;;;;;9.27;5.55;;;6.90;99.90;;;;;;5134427;27;20046;-66
2023/04/07 05:41:43;;;;;;;10.32;6.28;;;6.90;99.90;;;;;;5134436;27;20478;-66
2023/04/07 05:44:09;;;;;;;10.02;5.22;;;6.90;99.90;;;;;;5134036;27;20127;-66
2023/04/07 05:46:34;;;;;;;10.32;5.97;;;6.90;99.90;;;;;;5134401;27;20114;-66
2023/04/07 05:49:00;;;;;;;8.40;5.38;;;6.90;99.90;;;;;;5134360;27;20027;-66
2023/04/07 05:51:26;;;;;;;10.63;6.15;;;6.90;99.90;;;;;;5115611;27;20104;-66
2023/04/07 05:53:51;;;;;;;12.07;6.20;;;6.90;99.90;;;;;;5134301;27;20060;-66
2023/04/07 05:56:17;;;;;;;13.90;6.55;;;6.90;99.90;;;;;;5134129;27;20039;-66
2023/04/07 05:58:42;;;;;;;11.55;6.03;;;6.90;99.90;;;;;;5134207;27;20525;-66
2023/04/07 06:01:08;;;;;;;10.07;6.43;;;7.40;99.90;;;;;;5134023;27;20043;-66
2023/04/07 06:03:34;;;;;;;10.75;6.03;;;6.90;99.90;;;;;;5133961;27;20031;-65
2023/04/07 06:05:59;;;;;;;13.70;6.28;;;6.90;99.90;;;;;;5134028;27;20500;-66
2023/04/07 06:08:26;;;;;;;11.63;6.47;;;7.00;99.90;;;;;;5133582;27;20027;-66
2023/04/07 06:10:51;;;;;;;12.38;6.30;;;6.90;99.90;;;;;;5133931;27;20039;-66
2023/04/07 06:13:17;;;;;;;11.85;6.55;;;7.00;99.90;;;;;;5133813;27;20031;-66
2023/04/07 06:15:42;;;;;;;11.68;5.88;;;7.00;99.90;;;;;;5133895;27;20043;-65
2023/04/07 06:18:08;;;;;;;13.13;6.95;;;7.00;99.90;;;;;;5133581;28;20421;-66
2023/04/07 06:20:34;;;;;;;12.70;6.57;;;7.10;99.90;;;;;;5133319;28;20066;-66
2023/04/07 06:23:00;;;;;;;9.82;5.75;;;8.10;99.90;;;;;;5115252;28;20062;-66
2023/04/07 06:25:26;;;;;;;10.80;5.60;;;7.10;99.90;;;;;;5133828;28;20043;-66
2023/04/07 06:27:53;;;;;;;11.02;5.47;;;7.10;99.90;;;;;;5133850;28;20456;-66
2023/04/07 06:30:19;;;;;;;12.65;6.13;;;7.20;99.90;;;;;;5133563;28;20122;-65
2023/04/07 06:32:44;;;;;;;11.02;5.30;;;7.20;99.90;;;;;;5133417;28;20081;-66
2023/04/07 06:35:10;;;;;;;9.88;5.03;;;7.20;99.90;;;;;;5133780;28;20039;-65
2023/04/07 06:37:38;;;;;;;13.05;5.55;;;7.20;99.90;;;;;;5114939;28;20122;-66
2023/04/07 06:40:04;;;;;;;13.48;6.18;;;7.20;99.90;;;;;;5133691;28;20542;-66
2023/04/07 06:42:30;;;;;;;9.63;4.72;;;7.30;99.90;;;;;;5114866;28;20045;-66
2023/04/07 06:44:56;;;;;;;11.63;5.32;;;7.40;99.90;;;;;;5133678;28;20487;-70
2023/04/07 06:47:21;;;;;;;9.90;5.72;;;7.30;99.90;;;;;;5115216;28;20554;-66
2023/04/07 06:49:47;;;;;;;9.40;4.80;;;7.40;99.90;;;;;;5133710;28;20031;-65
2023/04/07 06:52:12;;;;;;;16.73;5.50;;;7.50;99.90;;;;;;5133723;28;20031;-65
2023/04/07 06:54:38;;;;;;;8.98;5.50;;;7.50;99.90;;;;;;5133549;28;20502;-69
2023/04/07 06:57:05;;;;;;;12.27;6.13;;;7.90;99.90;;;;;;5114983;28;20043;-65
2023/04/07 06:59:31;;;;;;;8.95;5.38;;;7.50;99.90;;;;;;5132312;28;20039;-70
2023/04/07 07:01:56;;;;;;;13.40;5.25;;;7.60;99.90;;;;;;5133122;28;20039;-65
2023/04/07 07:04:22;;;;;;;9.90;5.38;;;7.60;99.90;;;;;;5133934;28;20137;-61
2023/04/07 07:06:47;;;;;;;9.93;5.47;;;7.60;99.90;;;;;;5133222;28;20043;-61
2023/04/07 07:09:13;;;;;;;9.93;5.70;;;7.60;99.90;;;;;;5133310;28;20444;-64
2023/04/07 07:11:39;;;;;;;10.82;5.15;;;7.70;99.90;;;;;;5133299;28;20063;-62
2023/04/07 07:14:05;;;;;;;9.88;4.95;;;7.70;99.90;;;;;;5133270;27;20036;-66
2023/04/07 07:16:30;;;;;;;9.35;4.93;;;7.70;99.90;;;;;;5137103;27;20043;-62
2023/04/07 07:18:56;;;;;;;8.43;5.05;;;7.70;99.90;;;;;;5118488;27;20046;-67
2023/04/07 07:21:21;;;;;;;9.18;5.75;;;7.70;99.90;;;;;;5118534;27;20096;-66
2023/04/07 07:23:47;;;;;;;9.23;5.05;;;7.80;99.90;;;;;;5118308;27;20038;-63
2023/04/07 07:26:12;;;;;;;8.48;4.55;;;7.90;99.90;;;;;;5136663;27;20039;-63
2023/04/07 07:28:38;;;;;;;8.82;4.90;;;7.90;99.90;;;;;;5136788;27;20035;-63
2023/04/07 07:31:09;;;;;;;7.78;4.75;;;8.00;99.90;;;;;;5101226;27;20525;-63
2023/04/07 07:33:35;;;;;;;8.23;5.43;;;8.00;99.90;;;;;;5137126;27;20095;-62
2023/04/07 07:36:00;;;;;;;6.13;4.10;;;8.00;99.90;;;;;;5117985;27;20110;-62
2023/04/07 07:38:26;;;;;;;10.55;5.03;;;8.80;99.90;;;;;;5136677;27;20099;-64
2023/04/07 07:40:52;;;;;;;11.45;5.28;;;8.10;99.90;;;;;;5136255;27;20126;-63
2023/04/07 07:43:17;;;;;;;7.38;4.70;;;8.10;99.90;;;;;;5136521;27;20512;-63
2023/04/07 07:45:43;;;;;;;10.55;4.75;;;8.10;99.90;;;;;;5117845;27;20039;-63
2023/04/07 07:48:09;;;;;;;6.85;4.95;;;8.20;99.90;;;;;;5136468;27;20027;-66
2023/04/07 07:50:35;;;;;;;8.00;4.93;;;8.20;99.90;;;;;;5136354;27;20375;-63
2023/04/07 07:53:01;;;;;;;9.80;5.13;;;8.20;99.90;;;;;;5136432;27;20390;-62
2023/04/07 07:55:26;;;;;;;5.15;3.60;;;8.20;99.90;;;;;;5118116;27;20110;-63
2023/04/07 07:57:52;;;;;;;9.25;5.60;;;8.20;99.90;;;;;;5117774;27;20082;-63
2023/04/07 08:00:18;;;;;;;10.85;4.93;;;8.30;99.90;;;;;;5136275;27;20501;-63
2023/04/07 08:02:43;;;;;;;8.73;4.88;;;8.40;99.90;;;;;;5117519;27;20039;-63
2023/04/07 08:05:09;;;;;;;9.55;4.90;;;8.40;99.90;;;;;;5136348;27;20043;-64
2023/04/07 08:07:35;;;;;;;9.50;4.88;;;8.50;99.90;;;;;;5136018;27;20050;-63
2023/04/07 08:10:01;;;;;;;9.23;4.63;;;8.50;99.90;;;;;;5136244;27;20039;-63
2023/04/07 08:12:26;;;;;;;7.85;4.47;;;8.60;99.90;;;;;;5117351;27;20043;-64
2023/04/07 08:14:52;;;;;;;8.05;4.35;;;9.10;99.90;;;;;;5136086;27;20034;-63
2023/04/07 08:17:18;;;;;;;8.32;4.43;;;11.30;99.90;;;;;;5136043;27;20494;-63
2023/04/07 08:19:43;;;;;;;8.32;4.55;;;8.90;99.90;;;;;;5135691;27;20132;-63
2023/04/07 08:22:09;;;;;;;7.68;3.90;;;8.80;99.90;;;;;;5135498;27;20494;-63
2023/04/07 08:24:34;;;;;;;9.60;3.95;;;8.90;99.90;;;;;;5117252;27;20038;-63
2023/04/07 08:27:00;;;;;;;8.05;4.55;;;8.90;99.90;;;;;;5135911;27;20122;-64
2023/04/07 08:29:26;;;;;;;9.25;4.65;;;8.90;99.90;;;;;;5135589;27;20475;-64
2023/04/07 08:31:51;;;;;;;7.65;5.20;;;8.90;99.90;;;;;;5135502;27;20104;-63
2023/04/07 08:34:19;;;;;;;10.98;4.57;;;8.90;99.90;;;;;;5135753;27;20440;-63
2023/04/07 08:36:45;;;;;;;7.00;4.82;;;8.90;99.90;;;;;;5117060;27;20084;-63
2023/04/07 08:39:11;;;;;;;7.22;4.55;;;8.90;99.90;;;;;;5135559;27;20042;-63
2023/04/07 08:41:39;;;;;;;9.80;4.88;;;8.90;99.90;;;;;;5135182;27;20074;-64
2023/04/07 08:44:07;;;;;;;10.35;5.07;;;8.90;99.90;;;;;;5117075;27;20062;-63
2023/04/07 08:46:33;;;;;;;12.10;5.47;;;9.00;99.90;;;;;;5135483;27;20037;-63
2023/04/07 08:49:00;;;;;;;11.70;5.55;;;9.00;99.90;;;;;;5135450;27;20039;-63
2023/04/07 08:51:31;;;;;;;11.88;5.45;;;8.90;99.90;;;;;;5135015;27;20474;-63
2023/04/07 08:54:07;;;;;;;8.93;5.67;;;9.00;99.90;;;;;;5135329;27;20035;-64
2023/04/07 08:56:33;;;;;;;7.93;5.50;;;9.00;99.90;;;;;;5135216;27;20272;-63
2023/04/07 08:59:01;;;;;;;9.05;5.28;;;9.00;99.90;;;;;;5134995;27;20406;-63
2023/04/07 09:01:28;;;;;;;9.02;5.75;;;9.00;99.90;;;;;;5134855;27;20126;-63
2023/04/07 09:03:57;;;;;;;10.18;6.40;;;9.10;99.90;;;;;;5135141;27;20035;-63
2023/04/07 09:06:23;;;;;;;10.75;5.57;;;9.20;99.90;;;;;;5117183;27;20062;-64
2023/04/07 09:08:48;;;;;;;9.50;4.90;;;9.00;99.90;;;;;;5116297;27;20123;-63
2023/04/07 09:11:14;;;;;;;14.27;6.60;;;9.60;99.90;;;;;;5134795;27;20468;-63
2023/04/07 09:13:40;;;;;;;9.13;5.40;;;9.00;99.90;;;;;;5099678;27;20035;-63
2023/04/07 09:16:06;;;;;;;9.40;5.70;;;9.10;99.90;;;;;;5134921;27;20122;-66
2023/04/07 09:18:32;;;;;;;10.82;5.80;;;9.20;99.90;;;;;;5134796;27;20394;-63
2023/04/07 09:20:58;;;;;;;9.15;5.80;;;9.20;99.90;;;;;;5134701;27;20039;-63
2023/04/07 09:23:32;;;;;;;12.85;6.65;;;9.00;99.90;;;;;;5134805;27;20039;-63
2023/04/07 09:26:00;;;;;;;8.85;5.60;;;9.10;99.90;;;;;;5134413;27;20043;-63
2023/04/07 09:28:42;;;;;;;10.15;5.93;;;9.20;99.90;;;;;;5134679;27;20035;-63
2023/04/07 09:31:08;;;;;;;10.55;6.47;;;9.00;99.90;;;;;;5134299;27;20035;-63
2023/04/07 09:33:35;;;;;;;8.27;5.32;;;9.10;99.90;;;;;;5115929;27;20043;-63
2023/04/07 09:36:01;;;;;;;6.50;4.82;;;9.00;99.90;;;;;;5134616;27;20050;-63
2023/04/07 09:38:36;;;;;;;8.93;5.35;;;9.10;99.90;;;;;;5133658;27;20031;-63
2023/04/07 09:41:14;;;;;;;7.22;4.72;;;9.20;99.90;;;;;;5134396;27;20086;-63
2023/04/07 09:43:43;;;;;;;8.43;4.82;;;9.50;99.90;;;;;;5134442;27;20062;-63
2023/04/07 09:46:14;;;;;;;6.93;5.07;;;9.10;99.90;;;;;;5134398;27;20390;-63
2023/04/07 09:48:40;;;;;;;;;;;9.00;99.90;;;;;;5134496;27;20077;-63
2023/04/07 09:51:09;;;;;;;6.95;4.05;;;9.20;99.90;;;;;;5133100;27;19962;-63
2023/04/07 09:53:41;;;;;;;8.38;4.47;;;9.30;99.90;;;;;;5134288;27;20559;-63
2023/04/07 09:56:11;;;;;;;8.95;5.05;;;9.50;99.90;;;;;;5134216;27;20039;-63
2023/04/07 09:58:39;;;;;;;12.70;4.32;;;9.70;99.90;;;;;;5134151;27;20046;-63
2023/04/07 10:01:07;;;;;;;6.75;4.07;;;10.00;99.90;;;;;;5115360;27;20120;-63
2023/04/07 10:03:33;;;;;;;7.70;4.60;;;10.30;99.90;;;;;;5134110;27;20039;-63
2023/04/07 10:06:02;;;;;;;8.60;4.72;;;11.10;99.90;;;;;;5134186;27;20489;-69
2023/04/07 10:08:30;;;;;;;7.15;4.47;;;10.30;99.90;;;;;;5133819;27;20034;-63
2023/04/07 10:10:56;;;;;;;6.57;3.70;;;10.40;99.90;;;;;;5134042;27;20042;-63
2023/04/07 10:13:23;;;;;;;5.45;3.83;;;10.30;99.90;;;;;;5134019;27;20443;-63
2023/04/07 10:15:49;;;;;;;5.97;3.70;;;10.50;99.90;;;;;;5134073;27;20067;-64
2023/04/07 10:18:17;;;;;;;7.55;4.68;;;10.50;99.90;;;;;;5133741;27;20031;-64
2023/04/07 10:20:44;;;;;;;7.25;4.70;;;10.50;99.90;;;;;;5114949;28;20434;-67
2023/04/07 10:23:24;;;;;;;8.25;4.78;;;10.20;99.90;;;;;;5115477;28;20047;-70
2023/04/07 10:25:53;;;;;;;7.25;4.57;;;10.40;99.90;;;;;;5133863;28;20035;-65
2023/04/07 10:28:23;;;;;;;7.78;5.25;;;10.30;99.90;;;;;;5133804;28;20091;-64
2023/04/07 10:30:50;;;;;;;9.77;4.93;;;10.50;99.90;;;;;;5133811;28;20506;-63
2023/04/07 10:33:17;;;;;;;9.30;5.07;;;10.60;99.90;;;;;;5115129;28;20042;-63
2023/04/07 10:36:03;;;;;;;7.78;4.35;;;10.60;99.90;;;;;;5133505;28;20096;-63
2023/04/07 10:38:30;;;;;;;7.05;4.45;;;10.60;99.90;;;;;;5133752;28;20493;-63
2023/04/07 10:40:56;;;;;;;8.30;4.57;;;10.60;99.90;;;;;;5115074;28;20031;-63
2023/04/07 10:43:51;;;;;;;6.80;4.97;;;10.30;99.90;;;;;;5115081;28;20047;-63
2023/04/07 10:46:17;;;;;;;7.43;4.70;;;10.50;99.90;;;;;;5116127;28;20054;-67
2023/04/07 10:49:02;;;;;;;8.63;4.93;;;10.60;99.90;;;;;;5115030;28;20032;-65
2023/04/07 10:51:28;;;;;;;8.35;4.90;;;10.60;99.90;;;;;;5137290;27;20050;-64
2023/04/07 10:54:15;;;;;;;7.65;4.53;;;10.60;99.90;;;;;;5137697;27;20043;-70
2023/04/07 10:57:13;;;;;;;7.43;4.88;;;10.80;99.90;;;;;;5137706;27;20164;-63
2023/04/07 11:00:10;;;;;;;7.00;3.78;;;11.00;99.90;;;;;;5137513;27;20122;-63
2023/04/07 11:02:39;;;;;;;7.32;4.30;;;11.00;99.90;;;;;;5118663;27;20031;-64
2023/04/07 11:05:05;;;;;;;8.68;4.70;;;11.00;99.90;;;;;;5137555;27;20074;-65
2023/04/07 11:07:45;;;;;;;8.07;4.43;;;11.00;99.90;;;;;;5137490;27;20063;-65
2023/04/07 11:10:12;;;;;;;14.00;5.15;;;12.20;99.90;;;;;;5101706;27;20456;-62
2023/04/07 11:12:37;;;;;;;8.70;5.03;;;10.80;99.90;;;;;;5137065;27;20103;-63
2023/04/07 11:15:17;;;;;;;8.95;4.78;;;10.90;99.90;;;;;;5118593;27;20039;-63
2023/04/07 11:17:43;;;;;;;7.07;4.35;;;10.60;99.90;;;;;;5137315;27;20371;-62
2023/04/07 11:20:09;;;;;;;7.22;4.18;;;10.60;99.90;;;;;;5118415;27;20115;-62
2023/04/07 11:22:36;;;;;;;8.38;4.72;;;10.60;99.90;;;;;;5118413;27;20099;-62
2023/04/07 11:25:01;;;;;;;7.80;4.57;;;10.60;99.90;;;;;;5101496;27;20031;-62
2023/04/07 11:27:28;;;;;;;7.53;4.63;;;10.90;99.90;;;;;;5137038;27;20110;-62
2023/04/07 11:29:55;;;;;;;6.10;3.90;;;10.90;99.90;;;;;;5137010;27;20402;-62
2023/04/07 11:32:24;;;;;;;6.47;4.15;;;10.80;99.90;;;;;;5136973;27;20047;-62
2023/04/07 11:34:50;;;;;;;7.43;3.55;;;11.20;99.90;;;;;;5136741;27;20402;-62
2023/04/07 11:37:24;;;;;;;5.03;3.13;;;11.30;31.50;;;;;;5136560;27;20042;-62
2023/04/07 11:39:53;;;;;;;5.13;3.15;;;11.00;1.00;;;;;;5136996;27;20114;-65
2023/04/07 11:42:38;;;;;;;6.30;3.35;;;11.40;5.60;;;;;;5136349;27;20125;-62
2023/04/07 11:45:05;;;;;;;6.95;3.40;;;11.50;1.00;;;;;;5136837;27;20035;-65
2023/04/07 11:47:39;;;;;;;6.25;3.28;;;11.60;1.00;;;;;;5136669;27;20031;-62
2023/04/07 11:50:06;;;;;;;5.65;3.67;;;11.50;1.00;;;;;;5118225;27;20111;-62
2023/04/07 11:52:47;;;;;;;6.35;3.45;;;11.60;1.00;;;;;;5136246;27;20051;-63
2023/04/07 11:55:25;;;;;;;4.63;3.15;;;12.10;1.00;;;;;;5136607;27;20394;-63
2023/04/07 11:57:51;;;;;;;5.97;3.17;;;11.70;1.00;;;;;;5118199;27;20039;-62
2023/04/07 12:00:18;;;;;;;7.50;3.63;;;11.70;1.00;;;;;;5136067;27;20490;-62
2023/04/07 12:02:43;;;;;;;6.47;4.05;;;11.80;1.00;;;;;;5136051;27;20125;-62
2023/04/07 12:05:09;;;;;;;4.53;3.22;;;11.80;1.00;;;;;;5136406;27;20088;-62
2023/04/07 12:07:40;;;;;;;6.85;3.67;;;11.80;1.00;;;;;;5136096;27;20046;-62
2023/04/07 12:10:24;;;;;;;4.55;3.35;;;11.80;1.00;;;;;;5136002;27;20090;-62
2023/04/07 12:12:50;;;;;;;3.67;2.58;;;11.90;1.00;;;;;;5136255;27;20039;-63
2023/04/07 12:15:16;;;;;;;4.72;3.08;;;12.10;1.00;;;;;;5100538;27;20066;-62
2023/04/07 12:17:46;;;;;;;7.50;3.55;;;12.40;1.00;;;;;;5136197;27;20406;-62
2023/04/07 12:20:13;;;;;;;5.90;3.57;;;12.10;1.00;;;;;;5135721;27;20525;-62
2023/04/07 12:22:39;;;;;;;6.40;3.10;;;12.00;1.00;;;;;;5135988;27;20368;-62
2023/04/07 12:25:05;;;;;;;5.47;3.20;;;12.00;1.00;;;;;;5135999;27;20371;-62
2023/04/07 12:27:30;;;;;;;5.40;3.13;;;12.20;1.00;;;;;;5135927;27;20035;-63
2023/04/07 12:29:56;;;;;;;4.20;2.35;;;12.50;1.00;;;;;;5117275;27;20036;-62
2023/04/07 12:32:22;;;;;;;6.93;2.88;;;;;;;;;;5135891;27;20491;-63
2023/04/07 12:34:48;;;;;;;4.75;2.83;;;12.40;1.00;;;;;;5135866;27;20402;-62
2023/04/07 12:37:13;;;;;;;5.50;2.85;;;12.60;1.00;;;;;;5135528;27;20118;-62
2023/04/07 12:39:39;;;;;;;5.97;3.45;;;13.20;99.90;;;;;;5135413;27;20035;-63
2023/04/07 12:42:06;;;;;;;4.47;2.75;;;12.60;99.90;;;;;;5135207;27;20122;-63
2023/04/07 12:44:31;;;;;;;6.20;2.88;;;12.70;99.90;;;;;;5135643;27;20070;-62
2023/04/07 12:46:57;;;;;;;4.53;2.65;;;12.70;99.90;;;;;;5135594;27;20038;-63
2023/04/07 12:49:23;;;;;;;3.85;2.50;;;12.70;99.90;;;;;;5135263;27;20092;-63
2023/04/07 12:51:49;;;;;;;3.58;2.28;;;12.70;99.90;;;;;;5135507;27;20597;-64